sensor_id;sensor_type;location;lat;lon;timestamp;temperature;humidity
45785;DHT22;31489;51.404;5.474;2023-09-18T00:01:11;23.90;78.60
45785;DHT22;31489;51.404;5.474;2023-09-18T00:03:36;23.90;78.70
45785;DHT22;31489;51.404;5.474;2023-09-18T00:06:02;23.90;78.70
45785;DHT22;31489;51.404;5.474;2023-09-18T00:08:28;23.90;78.70
45785;DHT22;31489;51.404;5.474;2023-09-18T00:10:54;23.90;78.80
45785;DHT22;31489;51.404;5.474;2023-09-18T00:13:21;23.90;79.00
45785;DHT22;31489;51.404;5.474;2023-09-18T00:15:47;23.90;79.00
45785;DHT22;31489;51.404;5.474;2023-09-18T00:18:17;23.90;79.00
45785;DHT22;31489;51.404;5.474;2023-09-18T00:20:43;23.80;79.00
45785;DHT22;31489;51.404;5.474;2023-09-18T00:23:09;23.90;79.10
45785;DHT22;31489;51.404;5.474;2023-09-18T00:25:35;23.90;79.20
45785;DHT22;31489;51.404;5.474;2023-09-18T00:28:02;23.90;79.10
45785;DHT22;31489;51.404;5.474;2023-09-18T00:30:28;23.90;79.10
45785;DHT22;31489;51.404;5.474;2023-09-18T00:32:53;23.90;79.10
45785;DHT22;31489;51.404;5.474;2023-09-18T00:35:19;23.90;79.20
45785;DHT22;31489;51.404;5.474;2023-09-18T00:37:45;23.90;79.10
45785;DHT22;31489;51.404;5.474;2023-09-18T00:40:11;23.90;79.20
45785;DHT22;31489;51.404;5.474;2023-09-18T00:42:37;23.90;79.30
45785;DHT22;31489;51.404;5.474;2023-09-18T00:45:03;23.80;79.80
45785;DHT22;31489;51.404;5.474;2023-09-18T00:47:29;23.80;79.20
45785;DHT22;31489;51.404;5.474;2023-09-18T00:49:56;23.80;79.20
45785;DHT22;31489;51.404;5.474;2023-09-18T00:52:23;23.80;79.30
45785;DHT22;31489;51.404;5.474;2023-09-18T00:54:49;23.80;79.40
45785;DHT22;31489;51.404;5.474;2023-09-18T00:57:16;23.80;79.20
45785;DHT22;31489;51.404;5.474;2023-09-18T00:59:42;23.80;79.30
45785;DHT22;31489;51.404;5.474;2023-09-18T01:02:08;23.80;79.30
45785;DHT22;31489;51.404;5.474;2023-09-18T01:04:34;23.80;79.30
45785;DHT22;31489;51.404;5.474;2023-09-18T01:07:03;23.80;79.30
45785;DHT22;31489;51.404;5.474;2023-09-18T01:09:31;23.80;79.30
45785;DHT22;31489;51.404;5.474;2023-09-18T01:12:22;23.80;79.40
45785;DHT22;31489;51.404;5.474;2023-09-18T01:17:34;23.80;79.60
45785;DHT22;31489;51.404;5.474;2023-09-18T01:20:00;23.80;79.30
45785;DHT22;31489;51.404;5.474;2023-09-18T01:22:29;23.80;79.20
45785;DHT22;31489;51.404;5.474;2023-09-18T01:24:55;23.80;79.30
45785;DHT22;31489;51.404;5.474;2023-09-18T01:27:21;23.80;79.20
45785;DHT22;31489;51.404;5.474;2023-09-18T01:29:47;23.80;79.30
45785;DHT22;31489;51.404;5.474;2023-09-18T01:32:13;23.80;79.30
45785;DHT22;31489;51.404;5.474;2023-09-18T01:34:48;23.80;79.30
45785;DHT22;31489;51.404;5.474;2023-09-18T01:37:17;23.80;79.50
45785;DHT22;31489;51.404;5.474;2023-09-18T01:39:47;23.80;79.30
45785;DHT22;31489;51.404;5.474;2023-09-18T01:42:13;23.80;79.20
45785;DHT22;31489;51.404;5.474;2023-09-18T01:44:39;23.80;79.20
45785;DHT22;31489;51.404;5.474;2023-09-18T01:47:12;23.80;79.30
45785;DHT22;31489;51.404;5.474;2023-09-18T01:49:39;23.80;79.50
45785;DHT22;31489;51.404;5.474;2023-09-18T01:52:07;23.80;79.40
45785;DHT22;31489;51.404;5.474;2023-09-18T01:54:34;23.80;79.40
45785;DHT22;31489;51.404;5.474;2023-09-18T01:57:00;23.80;79.20
45785;DHT22;31489;51.404;5.474;2023-09-18T01:59:27;23.80;79.40
45785;DHT22;31489;51.404;5.474;2023-09-18T02:01:53;23.90;79.40
45785;DHT22;31489;51.404;5.474;2023-09-18T02:04:22;23.80;79.40
45785;DHT22;31489;51.404;5.474;2023-09-18T02:06:49;23.90;79.50
45785;DHT22;31489;51.404;5.474;2023-09-18T02:09:15;23.80;79.50
45785;DHT22;31489;51.404;5.474;2023-09-18T02:11:43;23.90;79.60
45785;DHT22;31489;51.404;5.474;2023-09-18T02:14:09;23.80;79.50
45785;DHT22;31489;51.404;5.474;2023-09-18T02:16:36;23.90;79.50
45785;DHT22;31489;51.404;5.474;2023-09-18T02:19:03;23.90;79.50
45785;DHT22;31489;51.404;5.474;2023-09-18T02:21:30;23.90;79.50
45785;DHT22;31489;51.404;5.474;2023-09-18T02:23:56;23.90;79.50
45785;DHT22;31489;51.404;5.474;2023-09-18T02:26:23;23.90;79.50
45785;DHT22;31489;51.404;5.474;2023-09-18T02:28:51;23.90;79.60
45785;DHT22;31489;51.404;5.474;2023-09-18T02:31:17;23.80;79.50
45785;DHT22;31489;51.404;5.474;2023-09-18T02:33:43;23.80;79.50
45785;DHT22;31489;51.404;5.474;2023-09-18T02:36:08;23.80;79.50
45785;DHT22;31489;51.404;5.474;2023-09-18T02:38:34;23.80;79.50
45785;DHT22;31489;51.404;5.474;2023-09-18T02:41:00;23.80;79.60
45785;DHT22;31489;51.404;5.474;2023-09-18T02:43:26;23.80;79.30
45785;DHT22;31489;51.404;5.474;2023-09-18T02:45:52;23.80;79.30
45785;DHT22;31489;51.404;5.474;2023-09-18T02:48:18;23.80;79.10
45785;DHT22;31489;51.404;5.474;2023-09-18T02:50:44;23.70;79.20
45785;DHT22;31489;51.404;5.474;2023-09-18T02:53:28;23.80;79.10
45785;DHT22;31489;51.404;5.474;2023-09-18T02:55:56;23.80;79.20
45785;DHT22;31489;51.404;5.474;2023-09-18T02:58:23;23.80;79.30
45785;DHT22;31489;51.404;5.474;2023-09-18T03:00:52;23.80;79.20
45785;DHT22;31489;51.404;5.474;2023-09-18T03:03:18;23.80;79.30
45785;DHT22;31489;51.404;5.474;2023-09-18T03:05:44;23.90;79.20
45785;DHT22;31489;51.404;5.474;2023-09-18T03:08:13;23.90;79.40
45785;DHT22;31489;51.404;5.474;2023-09-18T03:10:40;23.90;79.50
45785;DHT22;31489;51.404;5.474;2023-09-18T03:13:07;23.90;79.40
45785;DHT22;31489;51.404;5.474;2023-09-18T03:15:33;23.90;79.40
45785;DHT22;31489;51.404;5.474;2023-09-18T03:17:59;23.90;79.40
45785;DHT22;31489;51.404;5.474;2023-09-18T03:20:28;23.90;79.40
45785;DHT22;31489;51.404;5.474;2023-09-18T03:22:59;23.90;79.40
45785;DHT22;31489;51.404;5.474;2023-09-18T03:25:26;23.90;79.50
45785;DHT22;31489;51.404;5.474;2023-09-18T03:27:53;23.80;79.40
45785;DHT22;31489;51.404;5.474;2023-09-18T03:30:19;23.80;79.40
45785;DHT22;31489;51.404;5.474;2023-09-18T03:32:45;23.80;79.20
45785;DHT22;31489;51.404;5.474;2023-09-18T03:35:11;23.80;79.20
45785;DHT22;31489;51.404;5.474;2023-09-18T03:37:48;23.80;79.10
45785;DHT22;31489;51.404;5.474;2023-09-18T03:40:14;23.80;79.30
45785;DHT22;31489;51.404;5.474;2023-09-18T03:42:40;23.80;79.40
45785;DHT22;31489;51.404;5.474;2023-09-18T03:45:07;23.80;79.30
45785;DHT22;31489;51.404;5.474;2023-09-18T03:47:40;23.80;79.60
45785;DHT22;31489;51.404;5.474;2023-09-18T03:50:09;23.80;79.70
45785;DHT22;31489;51.404;5.474;2023-09-18T03:52:36;23.80;79.90
45785;DHT22;31489;51.404;5.474;2023-09-18T03:55:02;23.80;80.40
45785;DHT22;31489;51.404;5.474;2023-09-18T03:57:28;23.90;80.50
45785;DHT22;31489;51.404;5.474;2023-09-18T03:59:53;23.80;80.60
45785;DHT22;31489;51.404;5.474;2023-09-18T04:02:21;23.80;80.70
45785;DHT22;31489;51.404;5.474;2023-09-18T04:04:47;23.70;80.90
45785;DHT22;31489;51.404;5.474;2023-09-18T04:07:13;23.70;81.10
45785;DHT22;31489;51.404;5.474;2023-09-18T04:09:42;23.70;81.20
45785;DHT22;31489;51.404;5.474;2023-09-18T04:12:07;23.70;81.50
45785;DHT22;31489;51.404;5.474;2023-09-18T04:14:33;23.60;81.70
45785;DHT22;31489;51.404;5.474;2023-09-18T04:16:59;23.60;81.70
45785;DHT22;31489;51.404;5.474;2023-09-18T04:19:26;23.60;81.90
45785;DHT22;31489;51.404;5.474;2023-09-18T04:21:52;23.50;82.00
45785;DHT22;31489;51.404;5.474;2023-09-18T04:24:18;23.50;82.10
45785;DHT22;31489;51.404;5.474;2023-09-18T04:26:43;23.50;82.30
45785;DHT22;31489;51.404;5.474;2023-09-18T04:29:09;23.50;82.30
45785;DHT22;31489;51.404;5.474;2023-09-18T04:31:35;23.50;82.20
45785;DHT22;31489;51.404;5.474;2023-09-18T04:34:01;23.50;82.10
45785;DHT22;31489;51.404;5.474;2023-09-18T04:36:27;23.50;82.00
45785;DHT22;31489;51.404;5.474;2023-09-18T04:38:53;23.50;81.90
45785;DHT22;31489;51.404;5.474;2023-09-18T04:41:19;23.50;81.90
45785;DHT22;31489;51.404;5.474;2023-09-18T04:43:45;23.50;81.70
45785;DHT22;31489;51.404;5.474;2023-09-18T04:46:11;23.50;81.60
45785;DHT22;31489;51.404;5.474;2023-09-18T04:48:36;23.50;81.90
45785;DHT22;31489;51.404;5.474;2023-09-18T04:51:03;23.50;81.40
45785;DHT22;31489;51.404;5.474;2023-09-18T04:53:30;23.50;81.20
45785;DHT22;31489;51.404;5.474;2023-09-18T04:55:56;23.50;81.10
45785;DHT22;31489;51.404;5.474;2023-09-18T04:58:21;23.50;81.00
45785;DHT22;31489;51.404;5.474;2023-09-18T05:00:55;23.50;80.90
45785;DHT22;31489;51.404;5.474;2023-09-18T05:03:22;23.50;80.80
45785;DHT22;31489;51.404;5.474;2023-09-18T05:05:47;23.50;80.50
45785;DHT22;31489;51.404;5.474;2023-09-18T05:08:13;23.50;80.50
45785;DHT22;31489;51.404;5.474;2023-09-18T05:10:39;23.50;80.50
45785;DHT22;31489;51.404;5.474;2023-09-18T05:13:04;23.50;80.50
45785;DHT22;31489;51.404;5.474;2023-09-18T05:15:30;23.50;80.40
45785;DHT22;31489;51.404;5.474;2023-09-18T05:17:57;23.50;80.40
45785;DHT22;31489;51.404;5.474;2023-09-18T05:20:28;23.40;80.30
45785;DHT22;31489;51.404;5.474;2023-09-18T05:22:55;23.40;80.40
45785;DHT22;31489;51.404;5.474;2023-09-18T05:25:22;23.40;80.30
45785;DHT22;31489;51.404;5.474;2023-09-18T05:27:52;23.40;80.20
45785;DHT22;31489;51.404;5.474;2023-09-18T05:30:28;23.40;80.30
45785;DHT22;31489;51.404;5.474;2023-09-18T05:32:55;23.40;80.30
45785;DHT22;31489;51.404;5.474;2023-09-18T05:35:23;23.30;80.00
45785;DHT22;31489;51.404;5.474;2023-09-18T05:37:50;23.30;80.10
45785;DHT22;31489;51.404;5.474;2023-09-18T05:40:20;23.30;80.00
45785;DHT22;31489;51.404;5.474;2023-09-18T05:42:45;23.20;80.00
45785;DHT22;31489;51.404;5.474;2023-09-18T05:45:12;23.20;80.00
45785;DHT22;31489;51.404;5.474;2023-09-18T05:47:38;23.20;80.10
45785;DHT22;31489;51.404;5.474;2023-09-18T05:50:08;23.20;80.10
45785;DHT22;31489;51.404;5.474;2023-09-18T05:52:35;23.20;80.00
45785;DHT22;31489;51.404;5.474;2023-09-18T05:55:02;23.20;80.00
45785;DHT22;31489;51.404;5.474;2023-09-18T05:57:27;23.10;79.90
45785;DHT22;31489;51.404;5.474;2023-09-18T05:59:56;23.10;79.80
45785;DHT22;31489;51.404;5.474;2023-09-18T06:02:23;23.20;80.00
45785;DHT22;31489;51.404;5.474;2023-09-18T06:04:57;23.10;79.90
45785;DHT22;31489;51.404;5.474;2023-09-18T06:07:26;23.10;80.10
45785;DHT22;31489;51.404;5.474;2023-09-18T06:09:52;23.10;80.00
45785;DHT22;31489;51.404;5.474;2023-09-18T06:12:18;23.10;80.00
45785;DHT22;31489;51.404;5.474;2023-09-18T06:14:44;23.10;80.00
45785;DHT22;31489;51.404;5.474;2023-09-18T06:17:10;23.10;80.00
45785;DHT22;31489;51.404;5.474;2023-09-18T06:19:36;23.00;80.00
45785;DHT22;31489;51.404;5.474;2023-09-18T06:22:02;23.00;80.00
45785;DHT22;31489;51.404;5.474;2023-09-18T06:24:28;23.00;79.80
45785;DHT22;31489;51.404;5.474;2023-09-18T06:26:54;23.10;79.80
45785;DHT22;31489;51.404;5.474;2023-09-18T06:29:19;23.00;79.80
45785;DHT22;31489;51.404;5.474;2023-09-18T06:31:46;23.00;79.80
45785;DHT22;31489;51.404;5.474;2023-09-18T06:34:12;23.00;79.80
45785;DHT22;31489;51.404;5.474;2023-09-18T06:36:37;23.00;79.90
45785;DHT22;31489;51.404;5.474;2023-09-18T06:39:03;23.00;79.90
45785;DHT22;31489;51.404;5.474;2023-09-18T06:41:29;23.00;79.90
45785;DHT22;31489;51.404;5.474;2023-09-18T06:43:54;23.00;79.80
45785;DHT22;31489;51.404;5.474;2023-09-18T06:46:20;23.00;79.90
45785;DHT22;31489;51.404;5.474;2023-09-18T06:48:46;23.00;79.90
45785;DHT22;31489;51.404;5.474;2023-09-18T06:51:15;23.00;79.90
45785;DHT22;31489;51.404;5.474;2023-09-18T06:53:40;23.00;79.80
45785;DHT22;31489;51.404;5.474;2023-09-18T06:56:06;23.00;79.80
45785;DHT22;31489;51.404;5.474;2023-09-18T06:58:34;23.00;79.80
45785;DHT22;31489;51.404;5.474;2023-09-18T07:01:00;23.00;79.60
45785;DHT22;31489;51.404;5.474;2023-09-18T07:03:28;23.00;79.50
45785;DHT22;31489;51.404;5.474;2023-09-18T07:05:53;23.00;79.40
45785;DHT22;31489;51.404;5.474;2023-09-18T07:08:19;23.00;79.60
45785;DHT22;31489;51.404;5.474;2023-09-18T07:10:50;23.00;79.40
45785;DHT22;31489;51.404;5.474;2023-09-18T07:13:15;23.00;79.40
45785;DHT22;31489;51.404;5.474;2023-09-18T07:15:41;23.00;79.30
45785;DHT22;31489;51.404;5.474;2023-09-18T07:18:07;23.00;79.40
45785;DHT22;31489;51.404;5.474;2023-09-18T07:20:32;23.00;79.40
45785;DHT22;31489;51.404;5.474;2023-09-18T07:22:59;23.00;79.40
45785;DHT22;31489;51.404;5.474;2023-09-18T07:25:24;23.00;79.30
45785;DHT22;31489;51.404;5.474;2023-09-18T07:27:50;23.00;79.30
45785;DHT22;31489;51.404;5.474;2023-09-18T07:30:15;23.00;79.20
45785;DHT22;31489;51.404;5.474;2023-09-18T07:32:42;23.00;79.30
45785;DHT22;31489;51.404;5.474;2023-09-18T07:35:09;23.00;79.10
45785;DHT22;31489;51.404;5.474;2023-09-18T07:37:35;23.00;79.00
45785;DHT22;31489;51.404;5.474;2023-09-18T07:40:05;23.00;79.10
45785;DHT22;31489;51.404;5.474;2023-09-18T07:42:31;23.10;78.80
45785;DHT22;31489;51.404;5.474;2023-09-18T07:44:57;23.10;78.80
45785;DHT22;31489;51.404;5.474;2023-09-18T07:47:23;23.10;78.70
45785;DHT22;31489;51.404;5.474;2023-09-18T07:49:48;23.10;78.60
45785;DHT22;31489;51.404;5.474;2023-09-18T07:52:14;23.10;78.60
45785;DHT22;31489;51.404;5.474;2023-09-18T07:54:41;23.10;78.80
45785;DHT22;31489;51.404;5.474;2023-09-18T07:57:06;23.10;78.60
45785;DHT22;31489;51.404;5.474;2023-09-18T07:59:37;23.10;78.80
45785;DHT22;31489;51.404;5.474;2023-09-18T08:02:04;23.10;78.50
45785;DHT22;31489;51.404;5.474;2023-09-18T08:04:33;23.20;78.60
45785;DHT22;31489;51.404;5.474;2023-09-18T08:06:59;23.20;78.30
45785;DHT22;31489;51.404;5.474;2023-09-18T08:09:26;23.20;78.30
45785;DHT22;31489;51.404;5.474;2023-09-18T08:11:54;23.20;78.30
45785;DHT22;31489;51.404;5.474;2023-09-18T08:14:21;23.20;78.10
45785;DHT22;31489;51.404;5.474;2023-09-18T08:16:47;23.20;78.10
45785;DHT22;31489;51.404;5.474;2023-09-18T08:19:15;23.20;78.10
45785;DHT22;31489;51.404;5.474;2023-09-18T08:21:42;23.20;77.80
45785;DHT22;31489;51.404;5.474;2023-09-18T08:24:08;23.20;77.70
45785;DHT22;31489;51.404;5.474;2023-09-18T08:26:34;23.30;77.90
45785;DHT22;31489;51.404;5.474;2023-09-18T08:28:59;23.30;77.70
45785;DHT22;31489;51.404;5.474;2023-09-18T08:31:25;23.40;77.80
45785;DHT22;31489;51.404;5.474;2023-09-18T08:33:53;23.40;77.80
45785;DHT22;31489;51.404;5.474;2023-09-18T08:36:18;23.40;77.60
45785;DHT22;31489;51.404;5.474;2023-09-18T08:38:44;23.40;77.60
45785;DHT22;31489;51.404;5.474;2023-09-18T08:41:12;23.40;77.30
45785;DHT22;31489;51.404;5.474;2023-09-18T08:43:41;23.40;77.10
45785;DHT22;31489;51.404;5.474;2023-09-18T08:46:08;23.40;77.30
45785;DHT22;31489;51.404;5.474;2023-09-18T08:48:34;23.40;77.50
45785;DHT22;31489;51.404;5.474;2023-09-18T08:51:05;23.50;77.30
45785;DHT22;31489;51.404;5.474;2023-09-18T08:53:32;23.50;77.20
45785;DHT22;31489;51.404;5.474;2023-09-18T08:55:59;23.50;77.10
45785;DHT22;31489;51.404;5.474;2023-09-18T08:58:30;23.50;76.90
45785;DHT22;31489;51.404;5.474;2023-09-18T09:00:57;23.50;77.00
45785;DHT22;31489;51.404;5.474;2023-09-18T09:03:23;23.60;77.10
45785;DHT22;31489;51.404;5.474;2023-09-18T09:05:49;23.60;77.00
45785;DHT22;31489;51.404;5.474;2023-09-18T09:08:15;23.60;77.00
45785;DHT22;31489;51.404;5.474;2023-09-18T09:10:41;23.60;76.90
45785;DHT22;31489;51.404;5.474;2023-09-18T09:13:07;23.70;77.30
45785;DHT22;31489;51.404;5.474;2023-09-18T09:15:43;23.70;77.60
45785;DHT22;31489;51.404;5.474;2023-09-18T09:18:12;23.80;77.60
45785;DHT22;31489;51.404;5.474;2023-09-18T09:20:40;23.90;77.70
45785;DHT22;31489;51.404;5.474;2023-09-18T09:23:10;24.00;77.10
45785;DHT22;31489;51.404;5.474;2023-09-18T09:25:36;24.20;77.10
45785;DHT22;31489;51.404;5.474;2023-09-18T09:28:06;24.30;76.60
45785;DHT22;31489;51.404;5.474;2023-09-18T09:30:34;24.30;76.20
45785;DHT22;31489;51.404;5.474;2023-09-18T09:33:04;24.40;75.60
45785;DHT22;31489;51.404;5.474;2023-09-18T09:35:33;24.40;74.90
45785;DHT22;31489;51.404;5.474;2023-09-18T09:38:01;24.50;74.40
45785;DHT22;31489;51.404;5.474;2023-09-18T09:40:32;24.60;74.70
45785;DHT22;31489;51.404;5.474;2023-09-18T09:42:58;24.60;75.00
45785;DHT22;31489;51.404;5.474;2023-09-18T09:45:28;24.60;74.50
45785;DHT22;31489;51.404;5.474;2023-09-18T09:48:04;24.70;74.70
45785;DHT22;31489;51.404;5.474;2023-09-18T09:50:31;24.70;74.40
45785;DHT22;31489;51.404;5.474;2023-09-18T09:52:58;24.70;73.80
45785;DHT22;31489;51.404;5.474;2023-09-18T09:55:29;24.80;74.20
45785;DHT22;31489;51.404;5.474;2023-09-18T09:57:57;24.90;73.80
45785;DHT22;31489;51.404;5.474;2023-09-18T10:03:09;25.10;72.80
45785;DHT22;31489;51.404;5.474;2023-09-18T10:05:37;25.10;73.20
45785;DHT22;31489;51.404;5.474;2023-09-18T10:10:43;25.10;72.80
45785;DHT22;31489;51.404;5.474;2023-09-18T10:13:13;25.20;72.50
45785;DHT22;31489;51.404;5.474;2023-09-18T10:15:42;25.10;72.20
45785;DHT22;31489;51.404;5.474;2023-09-18T10:18:30;25.10;72.30
45785;DHT22;31489;51.404;5.474;2023-09-18T10:21:22;25.10;72.30
45785;DHT22;31489;51.404;5.474;2023-09-18T10:26:28;25.00;72.50
45785;DHT22;31489;51.404;5.474;2023-09-18T10:28:56;25.00;72.90
45785;DHT22;31489;51.404;5.474;2023-09-18T10:31:28;25.00;73.00
45785;DHT22;31489;51.404;5.474;2023-09-18T10:33:57;25.10;73.60
45785;DHT22;31489;51.404;5.474;2023-09-18T10:36:25;25.10;73.60
45785;DHT22;31489;51.404;5.474;2023-09-18T10:38:55;25.30;73.70
45785;DHT22;31489;51.404;5.474;2023-09-18T10:41:22;25.40;73.70
45785;DHT22;31489;51.404;5.474;2023-09-18T10:43:53;25.40;72.90
45785;DHT22;31489;51.404;5.474;2023-09-18T10:46:19;25.50;72.00
45785;DHT22;31489;51.404;5.474;2023-09-18T10:48:46;25.50;71.70
45785;DHT22;31489;51.404;5.474;2023-09-18T10:51:13;25.50;72.80
45785;DHT22;31489;51.404;5.474;2023-09-18T10:53:40;25.50;71.30
45785;DHT22;31489;51.404;5.474;2023-09-18T10:56:06;25.50;71.50
45785;DHT22;31489;51.404;5.474;2023-09-18T10:58:32;25.50;71.70
45785;DHT22;31489;51.404;5.474;2023-09-18T11:01:07;25.40;71.20
45785;DHT22;31489;51.404;5.474;2023-09-18T11:03:37;25.50;71.40
45785;DHT22;31489;51.404;5.474;2023-09-18T11:06:09;25.50;71.90
45785;DHT22;31489;51.404;5.474;2023-09-18T11:08:46;25.60;71.70
45785;DHT22;31489;51.404;5.474;2023-09-18T11:11:13;25.70;71.30
45785;DHT22;31489;51.404;5.474;2023-09-18T11:13:48;25.70;71.30
45785;DHT22;31489;51.404;5.474;2023-09-18T11:19:08;25.90;70.60
45785;DHT22;31489;51.404;5.474;2023-09-18T11:21:34;26.00;70.40
45785;DHT22;31489;51.404;5.474;2023-09-18T11:24:07;26.10;71.00
45785;DHT22;31489;51.404;5.474;2023-09-18T11:26:40;26.20;69.10
45785;DHT22;31489;51.404;5.474;2023-09-18T11:29:13;26.20;68.60
45785;DHT22;31489;51.404;5.474;2023-09-18T11:31:46;26.20;69.20
45785;DHT22;31489;51.404;5.474;2023-09-18T11:36:45;26.50;70.00
45785;DHT22;31489;51.404;5.474;2023-09-18T11:39:12;26.80;70.40
45785;DHT22;31489;51.404;5.474;2023-09-18T11:41:38;27.10;69.10
45785;DHT22;31489;51.404;5.474;2023-09-18T11:46:44;27.50;66.20
45785;DHT22;31489;51.404;5.474;2023-09-18T11:49:14;27.70;66.40
45785;DHT22;31489;51.404;5.474;2023-09-18T11:51:41;27.90;65.10
45785;DHT22;31489;51.404;5.474;2023-09-18T12:00:19;28.90;63.60
45785;DHT22;31489;51.404;5.474;2023-09-18T12:02:52;29.30;62.50
45785;DHT22;31489;51.404;5.474;2023-09-18T12:05:23;29.40;62.50
45785;DHT22;31489;51.404;5.474;2023-09-18T12:07:51;29.60;61.90
45785;DHT22;31489;51.404;5.474;2023-09-18T12:10:21;29.60;60.80
45785;DHT22;31489;51.404;5.474;2023-09-18T12:12:47;29.60;59.80
45785;DHT22;31489;51.404;5.474;2023-09-18T12:15:14;29.50;59.50
45785;DHT22;31489;51.404;5.474;2023-09-18T12:17:41;29.40;59.40
45785;DHT22;31489;51.404;5.474;2023-09-18T12:20:07;29.30;59.10
45785;DHT22;31489;51.404;5.474;2023-09-18T12:22:32;29.10;58.90
45785;DHT22;31489;51.404;5.474;2023-09-18T12:25:14;28.90;58.90
45785;DHT22;31489;51.404;5.474;2023-09-18T12:27:41;28.70;58.80
45785;DHT22;31489;51.404;5.474;2023-09-18T12:30:08;28.50;59.20
45785;DHT22;31489;51.404;5.474;2023-09-18T12:32:38;28.30;59.80
45785;DHT22;31489;51.404;5.474;2023-09-18T12:35:06;28.10;59.80
45785;DHT22;31489;51.404;5.474;2023-09-18T12:37:34;28.00;60.30
45785;DHT22;31489;51.404;5.474;2023-09-18T12:40:00;28.00;60.40
45785;DHT22;31489;51.404;5.474;2023-09-18T12:42:25;28.00;59.90
45785;DHT22;31489;51.404;5.474;2023-09-18T12:44:52;27.90;60.10
45785;DHT22;31489;51.404;5.474;2023-09-18T12:47:18;27.80;60.10
45785;DHT22;31489;51.404;5.474;2023-09-18T12:49:44;27.70;60.10
45785;DHT22;31489;51.404;5.474;2023-09-18T12:52:10;27.70;60.40
45785;DHT22;31489;51.404;5.474;2023-09-18T12:54:43;27.60;61.60
45785;DHT22;31489;51.404;5.474;2023-09-18T12:57:20;27.50;60.70
45785;DHT22;31489;51.404;5.474;2023-09-18T12:59:48;27.50;60.90
45785;DHT22;31489;51.404;5.474;2023-09-18T13:02:20;27.40;61.10
45785;DHT22;31489;51.404;5.474;2023-09-18T13:04:56;27.40;61.00
45785;DHT22;31489;51.404;5.474;2023-09-18T13:07:29;27.30;61.90
45785;DHT22;31489;51.404;5.474;2023-09-18T13:10:00;27.20;63.10
45785;DHT22;31489;51.404;5.474;2023-09-18T13:12:42;27.20;63.10
45785;DHT22;31489;51.404;5.474;2023-09-18T13:15:09;27.20;62.60
45785;DHT22;31489;51.404;5.474;2023-09-18T13:17:42;27.10;63.20
45785;DHT22;31489;51.404;5.474;2023-09-18T13:20:12;27.20;65.20
45785;DHT22;31489;51.404;5.474;2023-09-18T13:22:40;27.20;63.90
45785;DHT22;31489;51.404;5.474;2023-09-18T13:25:10;27.30;63.90
45785;DHT22;31489;51.404;5.474;2023-09-18T13:27:37;27.50;63.90
45785;DHT22;31489;51.404;5.474;2023-09-18T13:30:08;27.60;64.40
45785;DHT22;31489;51.404;5.474;2023-09-18T13:32:38;27.80;63.90
45785;DHT22;31489;51.404;5.474;2023-09-18T13:35:04;28.00;63.00
45785;DHT22;31489;51.404;5.474;2023-09-18T13:37:34;28.20;62.40
45785;DHT22;31489;51.404;5.474;2023-09-18T13:40:02;28.40;60.20
45785;DHT22;31489;51.404;5.474;2023-09-18T13:42:31;28.60;59.90
45785;DHT22;31489;51.404;5.474;2023-09-18T13:45:01;28.80;59.50
45785;DHT22;31489;51.404;5.474;2023-09-18T13:47:30;29.00;59.60
45785;DHT22;31489;51.404;5.474;2023-09-18T13:49:56;29.20;59.80
45785;DHT22;31489;51.404;5.474;2023-09-18T13:52:29;29.30;58.40
45785;DHT22;31489;51.404;5.474;2023-09-18T13:54:55;29.60;57.80
45785;DHT22;31489;51.404;5.474;2023-09-18T13:57:21;29.70;57.30
45785;DHT22;31489;51.404;5.474;2023-09-18T13:59:48;29.90;56.10
45785;DHT22;31489;51.404;5.474;2023-09-18T14:02:14;30.00;55.60
45785;DHT22;31489;51.404;5.474;2023-09-18T14:04:41;30.10;55.30
45785;DHT22;31489;51.404;5.474;2023-09-18T14:07:07;30.10;54.70
45785;DHT22;31489;51.404;5.474;2023-09-18T14:09:35;30.20;55.20
45785;DHT22;31489;51.404;5.474;2023-09-18T14:12:03;30.20;54.20
45785;DHT22;31489;51.404;5.474;2023-09-18T14:14:30;30.30;54.60
45785;DHT22;31489;51.404;5.474;2023-09-18T14:16:58;30.40;53.80
45785;DHT22;31489;51.404;5.474;2023-09-18T14:19:23;30.50;52.70
45785;DHT22;31489;51.404;5.474;2023-09-18T14:21:49;30.50;52.80
45785;DHT22;31489;51.404;5.474;2023-09-18T14:24:16;30.60;52.10
45785;DHT22;31489;51.404;5.474;2023-09-18T14:26:48;30.60;52.20
45785;DHT22;31489;51.404;5.474;2023-09-18T14:29:14;30.70;52.90
45785;DHT22;31489;51.404;5.474;2023-09-18T14:31:40;30.70;52.40
45785;DHT22;31489;51.404;5.474;2023-09-18T14:34:06;30.70;52.00
45785;DHT22;31489;51.404;5.474;2023-09-18T14:36:32;30.80;52.10
45785;DHT22;31489;51.404;5.474;2023-09-18T14:39:00;30.90;51.40
45785;DHT22;31489;51.404;5.474;2023-09-18T14:41:26;30.90;51.20
45785;DHT22;31489;51.404;5.474;2023-09-18T14:43:52;30.90;50.80
45785;DHT22;31489;51.404;5.474;2023-09-18T14:46:18;30.80;50.90
45785;DHT22;31489;51.404;5.474;2023-09-18T14:48:44;30.70;50.20
45785;DHT22;31489;51.404;5.474;2023-09-18T14:51:18;30.70;49.80
45785;DHT22;31489;51.404;5.474;2023-09-18T14:53:46;30.50;49.90
45785;DHT22;31489;51.404;5.474;2023-09-18T14:56:12;30.30;49.80
45785;DHT22;31489;51.404;5.474;2023-09-18T14:58:38;30.20;49.70
45785;DHT22;31489;51.404;5.474;2023-09-18T15:01:04;30.00;49.70
45785;DHT22;31489;51.404;5.474;2023-09-18T15:03:29;29.80;49.70
45785;DHT22;31489;51.404;5.474;2023-09-18T15:05:55;29.70;49.80
45785;DHT22;31489;51.404;5.474;2023-09-18T15:08:21;29.50;49.90
45785;DHT22;31489;51.404;5.474;2023-09-18T15:10:47;29.40;50.00
45785;DHT22;31489;51.404;5.474;2023-09-18T15:13:13;29.30;50.30
45785;DHT22;31489;51.404;5.474;2023-09-18T15:15:42;29.20;50.30
45785;DHT22;31489;51.404;5.474;2023-09-18T15:18:11;29.00;50.40
45785;DHT22;31489;51.404;5.474;2023-09-18T15:20:36;28.90;50.50
45785;DHT22;31489;51.404;5.474;2023-09-18T15:23:04;28.80;50.70
45785;DHT22;31489;51.404;5.474;2023-09-18T15:25:31;28.70;51.00
45785;DHT22;31489;51.404;5.474;2023-09-18T15:28:04;28.60;50.80
45785;DHT22;31489;51.404;5.474;2023-09-18T15:30:54;28.60;50.70
45785;DHT22;31489;51.404;5.474;2023-09-18T15:33:20;28.50;50.80
45785;DHT22;31489;51.404;5.474;2023-09-18T15:35:52;28.40;51.00
45785;DHT22;31489;51.404;5.474;2023-09-18T15:38:20;28.30;51.40
45785;DHT22;31489;51.404;5.474;2023-09-18T15:40:49;28.20;51.60
45785;DHT22;31489;51.404;5.474;2023-09-18T15:43:15;28.20;51.70
45785;DHT22;31489;51.404;5.474;2023-09-18T15:45:43;28.10;53.10
45785;DHT22;31489;51.404;5.474;2023-09-18T15:48:11;27.80;56.30
45785;DHT22;31489;51.404;5.474;2023-09-18T15:50:37;27.60;58.20
45785;DHT22;31489;51.404;5.474;2023-09-18T15:53:03;27.20;58.10
45785;DHT22;31489;51.404;5.474;2023-09-18T15:55:28;26.70;58.40
45785;DHT22;31489;51.404;5.474;2023-09-18T15:57:54;26.20;59.20